DLH320 EDDF-LIEO
Flight info
| Callsign | DLH320 |
|---|---|
| Flight time | 1h 48m |
| Altitude | 37000 |
| Route | ANEKI6E ANEKI Y163 NATOR DCT TRA DCT RIPUS DCT GERSA DCT SOSON DCT ODINA DCT KEMMI DCT DEVOX DCT ANAKI DCT TORTU DCT OKROK DCT AJO A9 CORSI |
| Aircraft | A320/M-SDE2E3FGIJ1LORWXYZ/HB1 |
Departure
| Time | 2026-05-05 06:36 |
|---|---|
| Airport | Frankfurt Main Airport (EDDF) |
Arrival
| Time | 2026-05-05 08:24 |
|---|---|
| Airport | Olbia Costa Smeralda Airport (LIEO) |
| Time | Latitude | Longitude | Altitude | Speed | Heading |
|---|---|---|---|---|---|
| 2026-05-05 05:56 | 50.04403 | 8.56222 | 356 ft | 0 kts | 159° |
| 2026-05-05 06:20 | 50.04406 | 8.56220 | 356 ft | 3 kts | 160° |
| 2026-05-05 06:20 | 50.04432 | 8.56207 | 360 ft | 4 kts | 166° |
| 2026-05-05 06:21 | 50.04458 | 8.56201 | 360 ft | 4 kts | 189° |
| 2026-05-05 06:21 | 50.04477 | 8.56217 | 363 ft | 3 kts | 250° |
| 2026-05-05 06:21 | 50.04470 | 8.56189 | 357 ft | 4 kts | 250° |
| 2026-05-05 06:21 | 50.04461 | 8.56149 | 356 ft | 4 kts | 250° |
| 2026-05-05 06:22 | 50.04453 | 8.56118 | 363 ft | 0 kts | 249° |
| 2026-05-05 06:26 | 50.04451 | 8.56107 | 361 ft | 6 kts | 250° |
| 2026-05-05 06:27 | 50.04427 | 8.56049 | 360 ft | 5 kts | 224° |
| 2026-05-05 06:27 | 50.04427 | 8.56048 | 360 ft | 0 kts | 222° |
| 2026-05-05 06:29 | 50.04398 | 8.56034 | 356 ft | 8 kts | 185° |
| 2026-05-05 06:29 | 50.04345 | 8.56056 | 362 ft | 7 kts | 155° |
| 2026-05-05 06:29 | 50.04298 | 8.56109 | 360 ft | 11 kts | 125° |
| 2026-05-05 06:29 | 50.04232 | 8.56213 | 359 ft | 15 kts | 159° |
| 2026-05-05 06:30 | 50.04147 | 8.56285 | 358 ft | 13 kts | 124° |
| 2026-05-05 06:30 | 50.04157 | 8.56405 | 359 ft | 12 kts | 70° |
| 2026-05-05 06:30 | 50.04190 | 8.56543 | 363 ft | 15 kts | 70° |
| 2026-05-05 06:30 | 50.04226 | 8.56696 | 364 ft | 15 kts | 70° |
| 2026-05-05 06:31 | 50.04261 | 8.56842 | 361 ft | 14 kts | 70° |
| 2026-05-05 06:31 | 50.04296 | 8.56990 | 359 ft | 16 kts | 70° |
| 2026-05-05 06:31 | 50.04335 | 8.57153 | 364 ft | 16 kts | 70° |
| 2026-05-05 06:31 | 50.04377 | 8.57331 | 366 ft | 16 kts | 70° |
| 2026-05-05 06:32 | 50.04416 | 8.57496 | 363 ft | 17 kts | 69° |
| 2026-05-05 06:32 | 50.04458 | 8.57668 | 367 ft | 17 kts | 69° |
| 2026-05-05 06:32 | 50.04501 | 8.57842 | 370 ft | 18 kts | 69° |
| 2026-05-05 06:32 | 50.04547 | 8.58032 | 368 ft | 20 kts | 70° |
| 2026-05-05 06:33 | 50.04596 | 8.58233 | 368 ft | 19 kts | 69° |
| 2026-05-05 06:33 | 50.04636 | 8.58401 | 370 ft | 14 kts | 69° |
| 2026-05-05 06:33 | 50.04660 | 8.58529 | 374 ft | 7 kts | 108° |
| 2026-05-05 06:33 | 50.04629 | 8.58562 | 374 ft | 5 kts | 142° |
| 2026-05-05 06:34 | 50.04607 | 8.58582 | 373 ft | 3 kts | 154° |
| 2026-05-05 06:34 | 50.04595 | 8.58588 | 369 ft | 0 kts | 159° |
| 2026-05-05 06:34 | 50.04595 | 8.58589 | 369 ft | 0 kts | 159° |
| 2026-05-05 06:35 | 50.04579 | 8.58599 | 370 ft | 7 kts | 159° |
| 2026-05-05 06:35 | 50.04512 | 8.58611 | 371 ft | 10 kts | 193° |
| 2026-05-05 06:35 | 50.04475 | 8.58542 | 370 ft | 8 kts | 250° |
| 2026-05-05 06:35 | 50.04423 | 8.58319 | 372 ft | 54 kts | 249° |
| 2026-05-05 06:36 | 50.04210 | 8.57421 | 370 ft | 119 kts | 250° |
| 2026-05-05 06:36 | 50.03857 | 8.55945 | 361 ft | 169 kts | 249° |
| 2026-05-05 06:36 | 50.03400 | 8.54076 | 587 ft | 194 kts | 249° |
| 2026-05-05 06:36 | 50.02902 | 8.52088 | 1296 ft | 196 kts | 248° |
| 2026-05-05 06:37 | 50.02113 | 8.50374 | 1898 ft | 203 kts | 220° |
| 2026-05-05 06:37 | 50.00770 | 8.49477 | 2317 ft | 219 kts | 193° |
| 2026-05-05 06:37 | 49.99273 | 8.49017 | 3132 ft | 220 kts | 177° |
| 2026-05-05 06:37 | 49.97851 | 8.49809 | 3927 ft | 222 kts | 139° |
| 2026-05-05 06:38 | 49.96936 | 8.51739 | 4727 ft | 225 kts | 122° |
| 2026-05-05 06:38 | 49.95911 | 8.53521 | 5330 ft | 233 kts | 152° |
| 2026-05-05 06:38 | 49.94293 | 8.54194 | 5684 ft | 253 kts | 178° |
| 2026-05-05 06:38 | 49.92501 | 8.54163 | 6374 ft | 261 kts | 184° |
| 2026-05-05 06:39 | 49.90669 | 8.53971 | 7177 ft | 265 kts | 185° |
| 2026-05-05 06:39 | 49.88815 | 8.53811 | 7998 ft | 269 kts | 183° |
| 2026-05-05 06:39 | 49.86920 | 8.53733 | 8805 ft | 274 kts | 181° |
| 2026-05-05 06:39 | 49.84991 | 8.53739 | 9589 ft | 280 kts | 180° |
| 2026-05-05 06:40 | 49.83024 | 8.53810 | 10231 ft | 290 kts | 179° |
| 2026-05-05 06:40 | 49.80931 | 8.53925 | 10480 ft | 313 kts | 179° |
| 2026-05-05 06:40 | 49.78705 | 8.54071 | 10967 ft | 325 kts | 179° |
| 2026-05-05 06:40 | 49.76434 | 8.53903 | 11674 ft | 328 kts | 186° |
| 2026-05-05 06:41 | 49.74145 | 8.53613 | 12432 ft | 331 kts | 186° |
| 2026-05-05 06:41 | 49.71864 | 8.53316 | 13168 ft | 334 kts | 186° |
| 2026-05-05 06:41 | 49.69530 | 8.53006 | 13879 ft | 337 kts | 186° |
| 2026-05-05 06:41 | 49.67179 | 8.52693 | 14524 ft | 340 kts | 186° |
| 2026-05-05 06:42 | 49.64812 | 8.52380 | 15168 ft | 342 kts | 186° |
| 2026-05-05 06:42 | 49.62435 | 8.52065 | 15819 ft | 345 kts | 186° |
| 2026-05-05 06:42 | 49.60030 | 8.51746 | 16476 ft | 347 kts | 186° |
| 2026-05-05 06:42 | 49.57608 | 8.51423 | 17118 ft | 350 kts | 186° |
| 2026-05-05 06:43 | 49.55176 | 8.51103 | 17752 ft | 352 kts | 186° |
| 2026-05-05 06:43 | 49.52721 | 8.50783 | 18352 ft | 355 kts | 186° |
| 2026-05-05 06:43 | 49.50243 | 8.50460 | 18883 ft | 358 kts | 186° |
| 2026-05-05 06:43 | 49.47744 | 8.50133 | 19414 ft | 361 kts | 186° |
| 2026-05-05 06:44 | 49.45273 | 8.49812 | 19923 ft | 364 kts | 186° |
| 2026-05-05 06:44 | 49.42699 | 8.49476 | 20433 ft | 367 kts | 186° |
| 2026-05-05 06:44 | 49.40174 | 8.49143 | 20905 ft | 371 kts | 186° |
| 2026-05-05 06:44 | 49.37594 | 8.48802 | 21393 ft | 374 kts | 186° |
| 2026-05-05 06:45 | 49.34990 | 8.48463 | 21868 ft | 377 kts | 186° |
| 2026-05-05 06:45 | 49.32354 | 8.48121 | 22342 ft | 380 kts | 186° |
| 2026-05-05 06:45 | 49.29709 | 8.47787 | 22813 ft | 383 kts | 186° |
| 2026-05-05 06:45 | 49.27038 | 8.47463 | 23273 ft | 386 kts | 186° |
| 2026-05-05 06:46 | 49.24357 | 8.47145 | 23677 ft | 389 kts | 186° |
| 2026-05-05 06:46 | 49.21650 | 8.46827 | 24057 ft | 391 kts | 186° |
| 2026-05-05 06:46 | 49.18956 | 8.46512 | 24462 ft | 392 kts | 186° |
| 2026-05-05 06:46 | 49.16232 | 8.46196 | 24875 ft | 394 kts | 186° |
| 2026-05-05 06:47 | 49.13502 | 8.45883 | 25289 ft | 395 kts | 186° |
| 2026-05-05 06:47 | 49.10751 | 8.45571 | 25693 ft | 396 kts | 186° |
| 2026-05-05 06:47 | 49.08004 | 8.45264 | 26094 ft | 397 kts | 186° |
| 2026-05-05 06:47 | 49.05236 | 8.44958 | 26490 ft | 398 kts | 186° |
| 2026-05-05 06:48 | 49.02472 | 8.44657 | 26884 ft | 400 kts | 186° |
| 2026-05-05 06:48 | 48.99686 | 8.44357 | 27270 ft | 401 kts | 186° |
| 2026-05-05 06:48 | 48.96896 | 8.44050 | 27679 ft | 401 kts | 186° |
| 2026-05-05 06:48 | 48.94113 | 8.43739 | 28093 ft | 402 kts | 186° |
| 2026-05-05 06:49 | 48.91310 | 8.43428 | 28471 ft | 404 kts | 186° |
| 2026-05-05 06:49 | 48.88510 | 8.43119 | 28842 ft | 405 kts | 186° |
| 2026-05-05 06:49 | 48.85694 | 8.42808 | 29219 ft | 406 kts | 186° |
| 2026-05-05 06:49 | 48.82873 | 8.42499 | 29563 ft | 408 kts | 186° |
| 2026-05-05 06:50 | 48.80029 | 8.42189 | 29909 ft | 409 kts | 186° |
| 2026-05-05 06:50 | 48.77196 | 8.41884 | 30217 ft | 410 kts | 185° |
| 2026-05-05 06:50 | 48.74341 | 8.41562 | 30493 ft | 412 kts | 186° |
| 2026-05-05 06:50 | 48.71472 | 8.41236 | 30787 ft | 412 kts | 186° |
| 2026-05-05 06:51 | 48.68644 | 8.40922 | 31053 ft | 413 kts | 186° |
| 2026-05-05 06:51 | 48.65771 | 8.40609 | 31401 ft | 413 kts | 186° |
| 2026-05-05 06:51 | 48.62914 | 8.40309 | 31803 ft | 410 kts | 186° |
| 2026-05-05 06:51 | 48.60071 | 8.40023 | 32216 ft | 408 kts | 186° |
| 2026-05-05 06:52 | 48.57238 | 8.39751 | 32622 ft | 406 kts | 186° |
| 2026-05-05 06:52 | 48.54415 | 8.39493 | 33046 ft | 404 kts | 186° |
| 2026-05-05 06:52 | 48.51619 | 8.39252 | 33442 ft | 402 kts | 186° |
| 2026-05-05 06:52 | 48.48835 | 8.39023 | 33837 ft | 400 kts | 186° |
| 2026-05-05 06:53 | 48.46054 | 8.38803 | 34184 ft | 398 kts | 186° |
| 2026-05-05 06:53 | 48.43286 | 8.38580 | 34448 ft | 398 kts | 186° |
| 2026-05-05 06:53 | 48.40515 | 8.38350 | 34691 ft | 399 kts | 186° |
| 2026-05-05 06:53 | 48.37748 | 8.38115 | 34890 ft | 400 kts | 186° |
| 2026-05-05 06:54 | 48.34957 | 8.37873 | 35125 ft | 400 kts | 186° |
| 2026-05-05 06:54 | 48.32205 | 8.37622 | 35298 ft | 401 kts | 186° |
| 2026-05-05 06:54 | 48.29415 | 8.37360 | 35493 ft | 402 kts | 186° |
| 2026-05-05 06:54 | 48.26625 | 8.37094 | 35697 ft | 403 kts | 186° |
| 2026-05-05 06:55 | 48.23817 | 8.36823 | 35882 ft | 404 kts | 186° |
| 2026-05-05 06:55 | 48.21016 | 8.36549 | 36061 ft | 405 kts | 186° |
| 2026-05-05 06:55 | 48.18197 | 8.36271 | 36256 ft | 405 kts | 186° |
| 2026-05-05 06:55 | 48.15376 | 8.35987 | 36439 ft | 406 kts | 186° |
| 2026-05-05 06:56 | 48.12564 | 8.35700 | 36619 ft | 406 kts | 186° |
| 2026-05-05 06:56 | 48.09734 | 8.35402 | 36788 ft | 407 kts | 186° |
| 2026-05-05 06:56 | 48.06936 | 8.35104 | 36876 ft | 408 kts | 186° |
| 2026-05-05 06:57 | 48.01258 | 8.34496 | 36883 ft | 409 kts | 186° |
| 2026-05-05 06:57 | 47.95574 | 8.33888 | 36882 ft | 409 kts | 186° |
| 2026-05-05 06:58 | 47.89890 | 8.33280 | 36885 ft | 410 kts | 186° |
| 2026-05-05 06:58 | 47.84200 | 8.32666 | 36882 ft | 410 kts | 186° |
| 2026-05-05 06:59 | 47.78495 | 8.32050 | 36885 ft | 410 kts | 186° |
| 2026-05-05 06:59 | 47.72801 | 8.31438 | 36896 ft | 410 kts | 186° |
| 2026-05-05 07:00 | 47.67104 | 8.30837 | 36889 ft | 410 kts | 186° |
| 2026-05-05 07:00 | 47.61408 | 8.30245 | 36908 ft | 410 kts | 186° |
| 2026-05-05 07:01 | 47.55717 | 8.29662 | 36903 ft | 410 kts | 186° |
| 2026-05-05 07:01 | 47.50060 | 8.29081 | 36896 ft | 410 kts | 186° |
| 2026-05-05 07:02 | 47.44325 | 8.28504 | 36912 ft | 409 kts | 186° |
| 2026-05-05 07:02 | 47.38681 | 8.27965 | 36917 ft | 410 kts | 182° |
| 2026-05-05 07:02 | 47.35837 | 8.28479 | 36928 ft | 414 kts | 166° |
| 2026-05-05 07:03 | 47.33185 | 8.30140 | 36919 ft | 417 kts | 156° |
| 2026-05-05 07:03 | 47.28072 | 8.34168 | 36883 ft | 416 kts | 155° |
| 2026-05-05 07:04 | 47.22978 | 8.38228 | 36894 ft | 416 kts | 155° |
| 2026-05-05 07:04 | 47.17883 | 8.42272 | 36896 ft | 416 kts | 155° |
| 2026-05-05 07:05 | 47.12783 | 8.46284 | 36916 ft | 416 kts | 155° |
| 2026-05-05 07:05 | 47.08498 | 8.49638 | 36909 ft | 416 kts | 155° |
| 2026-05-05 07:06 | 47.03263 | 8.52983 | 36896 ft | 410 kts | 168° |
| 2026-05-05 07:06 | 46.97618 | 8.54116 | 36906 ft | 409 kts | 177° |
| 2026-05-05 07:07 | 46.91959 | 8.54923 | 36912 ft | 409 kts | 176° |
| 2026-05-05 07:07 | 46.86288 | 8.55748 | 36923 ft | 409 kts | 176° |
| 2026-05-05 07:08 | 46.80647 | 8.56564 | 36934 ft | 410 kts | 176° |
| 2026-05-05 07:08 | 46.74970 | 8.57381 | 36930 ft | 410 kts | 177° |
| 2026-05-05 07:09 | 46.69298 | 8.58191 | 36965 ft | 410 kts | 177° |
| 2026-05-05 07:09 | 46.63614 | 8.58995 | 36983 ft | 410 kts | 177° |
| 2026-05-05 07:10 | 46.57917 | 8.59797 | 37001 ft | 411 kts | 177° |
| 2026-05-05 07:10 | 46.52228 | 8.60608 | 37000 ft | 411 kts | 177° |
| 2026-05-05 07:11 | 46.46536 | 8.61411 | 37009 ft | 410 kts | 177° |
| 2026-05-05 07:11 | 46.40874 | 8.62209 | 37014 ft | 412 kts | 177° |
| 2026-05-05 07:12 | 46.35166 | 8.63018 | 37020 ft | 411 kts | 177° |
| 2026-05-05 07:12 | 46.29479 | 8.63822 | 37023 ft | 410 kts | 177° |
| 2026-05-05 07:13 | 46.23797 | 8.64619 | 37018 ft | 410 kts | 177° |
| 2026-05-05 07:13 | 46.18150 | 8.65406 | 37013 ft | 410 kts | 177° |
| 2026-05-05 07:14 | 46.12460 | 8.66207 | 37015 ft | 411 kts | 177° |
| 2026-05-05 07:14 | 46.06768 | 8.66964 | 37024 ft | 411 kts | 178° |
| 2026-05-05 07:15 | 46.01066 | 8.67587 | 37022 ft | 410 kts | 179° |
| 2026-05-05 07:15 | 45.95362 | 8.68196 | 37022 ft | 410 kts | 179° |
| 2026-05-05 07:16 | 45.89699 | 8.68823 | 37022 ft | 410 kts | 178° |
| 2026-05-05 07:16 | 45.84007 | 8.69469 | 36988 ft | 410 kts | 178° |
| 2026-05-05 07:17 | 45.78318 | 8.70111 | 36995 ft | 410 kts | 179° |
| 2026-05-05 07:17 | 45.72634 | 8.70746 | 36998 ft | 409 kts | 179° |
| 2026-05-05 07:18 | 45.66949 | 8.71380 | 36996 ft | 409 kts | 179° |
| 2026-05-05 07:18 | 45.61268 | 8.72017 | 37001 ft | 409 kts | 179° |
| 2026-05-05 07:19 | 45.55591 | 8.72646 | 37007 ft | 409 kts | 179° |
| 2026-05-05 07:19 | 45.49957 | 8.73283 | 37008 ft | 409 kts | 179° |
| 2026-05-05 07:20 | 45.44273 | 8.73922 | 37007 ft | 409 kts | 179° |
| 2026-05-05 07:20 | 45.38603 | 8.74539 | 37025 ft | 408 kts | 179° |
| 2026-05-05 07:21 | 45.32938 | 8.75158 | 37027 ft | 408 kts | 179° |
| 2026-05-05 07:21 | 45.27303 | 8.75782 | 37029 ft | 408 kts | 179° |
| 2026-05-05 07:22 | 45.21640 | 8.76413 | 37016 ft | 408 kts | 180° |
| 2026-05-05 07:22 | 45.15975 | 8.77035 | 36973 ft | 408 kts | 180° |
| 2026-05-05 07:23 | 45.10311 | 8.77651 | 36976 ft | 408 kts | 180° |
| 2026-05-05 07:23 | 45.04631 | 8.78262 | 36971 ft | 408 kts | 180° |
| 2026-05-05 07:24 | 44.98994 | 8.78883 | 36994 ft | 408 kts | 180° |
| 2026-05-05 07:24 | 44.93327 | 8.79502 | 36997 ft | 408 kts | 180° |
| 2026-05-05 07:25 | 44.87656 | 8.80110 | 36969 ft | 408 kts | 180° |
| 2026-05-05 07:25 | 44.81984 | 8.80718 | 36965 ft | 408 kts | 182° |
| 2026-05-05 07:26 | 44.76479 | 8.79737 | 36958 ft | 398 kts | 201° |
| 2026-05-05 07:26 | 44.71546 | 8.76359 | 36958 ft | 395 kts | 207° |
| 2026-05-05 07:26 | 44.68947 | 8.75037 | 36958 ft | 399 kts | 196° |
| 2026-05-05 07:27 | 44.66176 | 8.74491 | 36964 ft | 404 kts | 186° |
| 2026-05-05 07:27 | 44.60538 | 8.74336 | 36949 ft | 406 kts | 186° |
| 2026-05-05 07:28 | 44.54919 | 8.74089 | 36951 ft | 406 kts | 186° |
| 2026-05-05 07:28 | 44.49256 | 8.73817 | 36964 ft | 407 kts | 186° |
| 2026-05-05 07:29 | 44.43602 | 8.73553 | 36963 ft | 407 kts | 186° |
| 2026-05-05 07:29 | 44.37940 | 8.73307 | 36965 ft | 407 kts | 186° |
| 2026-05-05 07:30 | 44.32259 | 8.73077 | 36962 ft | 408 kts | 186° |
| 2026-05-05 07:30 | 44.23786 | 8.72713 | 36938 ft | 408 kts | 186° |
| 2026-05-05 07:31 | 44.18093 | 8.73122 | 36938 ft | 416 kts | 173° |
| 2026-05-05 07:31 | 44.12406 | 8.74794 | 36937 ft | 416 kts | 173° |
| 2026-05-05 07:32 | 44.06769 | 8.76429 | 36921 ft | 417 kts | 174° |
| 2026-05-05 07:32 | 44.01087 | 8.78060 | 36926 ft | 417 kts | 174° |
| 2026-05-05 07:33 | 43.95395 | 8.79699 | 36928 ft | 418 kts | 174° |
| 2026-05-05 07:33 | 43.89684 | 8.81345 | 36934 ft | 418 kts | 174° |
| 2026-05-05 07:34 | 43.83973 | 8.82981 | 36920 ft | 419 kts | 174° |
| 2026-05-05 07:34 | 43.78283 | 8.84605 | 36928 ft | 420 kts | 174° |
| 2026-05-05 07:35 | 43.72548 | 8.86247 | 36932 ft | 421 kts | 174° |
| 2026-05-05 07:35 | 43.66820 | 8.87892 | 36924 ft | 421 kts | 174° |
| 2026-05-05 07:36 | 43.61063 | 8.89535 | 36922 ft | 422 kts | 174° |
| 2026-05-05 07:36 | 43.55308 | 8.91171 | 36931 ft | 422 kts | 174° |
| 2026-05-05 07:37 | 43.49553 | 8.92797 | 36937 ft | 423 kts | 174° |
| 2026-05-05 07:37 | 43.43816 | 8.94414 | 36923 ft | 423 kts | 174° |
| 2026-05-05 07:38 | 43.37997 | 8.95610 | 36934 ft | 415 kts | 186° |
| 2026-05-05 07:38 | 43.32292 | 8.95056 | 36940 ft | 411 kts | 191° |
| 2026-05-05 07:39 | 43.26616 | 8.94396 | 36922 ft | 411 kts | 191° |
| 2026-05-05 07:39 | 43.20894 | 8.93745 | 36933 ft | 412 kts | 191° |
| 2026-05-05 07:40 | 43.15177 | 8.93086 | 36942 ft | 412 kts | 191° |
| 2026-05-05 07:40 | 43.09463 | 8.92426 | 36946 ft | 412 kts | 191° |
| 2026-05-05 07:41 | 43.03740 | 8.91763 | 36943 ft | 412 kts | 191° |
| 2026-05-05 07:41 | 42.98061 | 8.91110 | 36945 ft | 413 kts | 191° |
| 2026-05-05 07:42 | 42.92337 | 8.90452 | 36952 ft | 412 kts | 191° |
| 2026-05-05 07:42 | 42.86613 | 8.89795 | 36924 ft | 412 kts | 191° |
| 2026-05-05 07:43 | 42.80887 | 8.89140 | 36933 ft | 412 kts | 191° |
| 2026-05-05 07:43 | 42.75195 | 8.88497 | 36946 ft | 412 kts | 191° |
| 2026-05-05 07:44 | 42.69465 | 8.87849 | 36955 ft | 412 kts | 191° |
| 2026-05-05 07:44 | 42.63776 | 8.87195 | 36946 ft | 412 kts | 191° |
| 2026-05-05 07:45 | 42.58053 | 8.86558 | 36955 ft | 412 kts | 191° |
| 2026-05-05 07:45 | 42.52359 | 8.85909 | 36961 ft | 412 kts | 191° |
| 2026-05-05 07:46 | 42.46647 | 8.85258 | 36966 ft | 412 kts | 191° |
| 2026-05-05 07:46 | 42.40921 | 8.84608 | 36969 ft | 412 kts | 191° |
| 2026-05-05 07:47 | 42.35213 | 8.83966 | 36968 ft | 411 kts | 191° |
| 2026-05-05 07:47 | 42.29495 | 8.83322 | 36980 ft | 412 kts | 191° |
| 2026-05-05 07:48 | 42.23772 | 8.82684 | 36922 ft | 413 kts | 191° |
| 2026-05-05 07:48 | 42.20910 | 8.82364 | 36655 ft | 412 kts | 191° |
| 2026-05-05 07:48 | 42.18085 | 8.82043 | 36419 ft | 412 kts | 191° |
| 2026-05-05 07:49 | 42.15276 | 8.81724 | 36051 ft | 409 kts | 191° |
| 2026-05-05 07:49 | 42.12396 | 8.81404 | 35535 ft | 407 kts | 191° |
| 2026-05-05 07:49 | 42.09586 | 8.81094 | 35073 ft | 404 kts | 191° |
| 2026-05-05 07:49 | 42.06799 | 8.80784 | 34579 ft | 401 kts | 191° |
| 2026-05-05 07:50 | 42.04024 | 8.80471 | 34108 ft | 399 kts | 191° |
| 2026-05-05 07:50 | 42.01266 | 8.80164 | 33584 ft | 395 kts | 191° |
| 2026-05-05 07:50 | 41.98541 | 8.79865 | 33121 ft | 391 kts | 191° |
| 2026-05-05 07:50 | 41.95870 | 8.79570 | 32656 ft | 387 kts | 191° |
| 2026-05-05 07:51 | 41.93173 | 8.79265 | 32194 ft | 383 kts | 191° |
| 2026-05-05 07:51 | 41.90521 | 8.78965 | 31736 ft | 380 kts | 191° |
| 2026-05-05 07:51 | 41.87933 | 8.78674 | 31300 ft | 376 kts | 191° |
| 2026-05-05 07:51 | 41.85301 | 8.78385 | 30835 ft | 374 kts | 192° |
| 2026-05-05 07:52 | 41.82744 | 8.78107 | 30426 ft | 371 kts | 191° |
| 2026-05-05 07:52 | 41.80179 | 8.77826 | 29964 ft | 370 kts | 192° |
| 2026-05-05 07:52 | 41.77608 | 8.77556 | 29519 ft | 369 kts | 189° |
| 2026-05-05 07:52 | 41.75031 | 8.77645 | 29074 ft | 371 kts | 184° |
| 2026-05-05 07:53 | 41.72461 | 8.77866 | 28635 ft | 368 kts | 183° |
| 2026-05-05 07:53 | 41.69914 | 8.78087 | 28206 ft | 364 kts | 183° |
| 2026-05-05 07:53 | 41.67400 | 8.78304 | 27783 ft | 359 kts | 183° |
| 2026-05-05 07:53 | 41.64947 | 8.78515 | 27343 ft | 356 kts | 183° |
| 2026-05-05 07:54 | 41.62460 | 8.78729 | 26930 ft | 352 kts | 183° |
| 2026-05-05 07:54 | 41.60020 | 8.78940 | 26505 ft | 349 kts | 183° |
| 2026-05-05 07:54 | 41.57636 | 8.79147 | 26089 ft | 347 kts | 183° |
| 2026-05-05 07:54 | 41.56012 | 8.79288 | 25790 ft | 345 kts | 183° |
| 2026-05-05 07:55 | 41.52848 | 8.79562 | 25194 ft | 344 kts | 183° |
| 2026-05-05 07:55 | 41.50460 | 8.79768 | 24750 ft | 342 kts | 183° |
| 2026-05-05 07:55 | 41.48854 | 8.79904 | 24437 ft | 342 kts | 183° |
| 2026-05-05 07:55 | 41.46517 | 8.80102 | 23987 ft | 341 kts | 182° |
| 2026-05-05 07:56 | 41.44131 | 8.80305 | 23514 ft | 342 kts | 182° |
| 2026-05-05 07:56 | 41.40984 | 8.80570 | 22851 ft | 340 kts | 182° |
| 2026-05-05 07:56 | 41.39395 | 8.80706 | 22544 ft | 339 kts | 182° |
| 2026-05-05 07:56 | 41.37044 | 8.80908 | 22099 ft | 337 kts | 182° |
| 2026-05-05 07:57 | 41.34710 | 8.81113 | 21658 ft | 335 kts | 182° |
| 2026-05-05 07:57 | 41.32419 | 8.81315 | 21236 ft | 333 kts | 182° |
| 2026-05-05 07:57 | 41.30112 | 8.81545 | 20808 ft | 332 kts | 181° |
| 2026-05-05 07:57 | 41.27808 | 8.81790 | 20380 ft | 332 kts | 181° |
| 2026-05-05 07:58 | 41.25511 | 8.82040 | 19958 ft | 331 kts | 181° |
| 2026-05-05 07:58 | 41.23216 | 8.82289 | 19535 ft | 331 kts | 181° |
| 2026-05-05 07:58 | 41.20921 | 8.82537 | 19106 ft | 330 kts | 180° |
| 2026-05-05 07:58 | 41.18634 | 8.82783 | 18689 ft | 330 kts | 180° |
| 2026-05-05 07:59 | 41.16347 | 8.83027 | 18273 ft | 330 kts | 180° |
| 2026-05-05 07:59 | 41.14063 | 8.83269 | 17822 ft | 328 kts | 180° |
| 2026-05-05 07:59 | 41.11787 | 8.83569 | 17423 ft | 329 kts | 173° |
| 2026-05-05 07:59 | 41.09681 | 8.84811 | 17017 ft | 340 kts | 146° |
| 2026-05-05 08:00 | 41.08185 | 8.87267 | 16612 ft | 350 kts | 120° |
| 2026-05-05 08:00 | 41.07195 | 8.90170 | 16208 ft | 350 kts | 116° |
| 2026-05-05 08:00 | 41.06265 | 8.93154 | 15798 ft | 350 kts | 115° |
| 2026-05-05 08:00 | 41.05364 | 8.96153 | 15391 ft | 350 kts | 115° |
| 2026-05-05 08:01 | 41.04446 | 8.99136 | 14982 ft | 348 kts | 120° |
| 2026-05-05 08:01 | 41.03029 | 9.01661 | 14573 ft | 337 kts | 144° |
| 2026-05-05 08:01 | 41.01021 | 9.03133 | 14056 ft | 327 kts | 170° |
| 2026-05-05 08:01 | 40.98807 | 9.03364 | 13682 ft | 314 kts | 192° |
| 2026-05-05 08:02 | 40.96717 | 9.02790 | 13310 ft | 310 kts | 195° |
| 2026-05-05 08:02 | 40.94591 | 9.02341 | 12948 ft | 308 kts | 191° |
| 2026-05-05 08:02 | 40.92460 | 9.02044 | 12584 ft | 306 kts | 189° |
| 2026-05-05 08:02 | 40.90338 | 9.01868 | 12217 ft | 305 kts | 186° |
| 2026-05-05 08:03 | 40.88216 | 9.01838 | 11851 ft | 304 kts | 183° |
| 2026-05-05 08:03 | 40.86105 | 9.01971 | 11486 ft | 303 kts | 180° |
| 2026-05-05 08:03 | 40.84004 | 9.02271 | 11111 ft | 304 kts | 176° |
| 2026-05-05 08:03 | 40.81922 | 9.02731 | 10743 ft | 304 kts | 173° |
| 2026-05-05 08:04 | 40.79851 | 9.03347 | 10355 ft | 306 kts | 170° |
| 2026-05-05 08:04 | 40.77801 | 9.04121 | 9962 ft | 306 kts | 167° |
| 2026-05-05 08:04 | 40.75787 | 9.05054 | 9543 ft | 307 kts | 163° |
| 2026-05-05 08:04 | 40.73842 | 9.06133 | 9133 ft | 306 kts | 159° |
| 2026-05-05 08:05 | 40.71975 | 9.07467 | 8716 ft | 309 kts | 145° |
| 2026-05-05 08:05 | 40.70604 | 9.09665 | 8238 ft | 319 kts | 117° |
| 2026-05-05 08:05 | 40.70106 | 9.12523 | 7653 ft | 329 kts | 90° |
| 2026-05-05 08:05 | 40.70640 | 9.15406 | 7226 ft | 320 kts | 62° |
| 2026-05-05 08:06 | 40.71900 | 9.17710 | 6817 ft | 303 kts | 49° |
| 2026-05-05 08:06 | 40.73131 | 9.19898 | 6429 ft | 291 kts | 54° |
| 2026-05-05 08:06 | 40.74252 | 9.22069 | 6002 ft | 280 kts | 54° |
| 2026-05-05 08:06 | 40.75334 | 9.24138 | 5575 ft | 271 kts | 55° |
| 2026-05-05 08:07 | 40.76401 | 9.26157 | 5167 ft | 265 kts | 54° |
| 2026-05-05 08:07 | 40.77452 | 9.28145 | 4773 ft | 266 kts | 54° |
| 2026-05-05 08:07 | 40.78489 | 9.30110 | 4339 ft | 260 kts | 56° |
| 2026-05-05 08:07 | 40.79512 | 9.32051 | 3951 ft | 250 kts | 55° |
| 2026-05-05 08:08 | 40.80482 | 9.33892 | 3569 ft | 243 kts | 55° |
| 2026-05-05 08:08 | 40.81428 | 9.35688 | 3198 ft | 231 kts | 56° |
| 2026-05-05 08:08 | 40.82315 | 9.37373 | 2873 ft | 214 kts | 57° |
| 2026-05-05 08:08 | 40.83135 | 9.38931 | 2548 ft | 201 kts | 55° |
| 2026-05-05 08:09 | 40.83915 | 9.40416 | 2230 ft | 192 kts | 55° |
| 2026-05-05 08:09 | 40.84658 | 9.41831 | 1925 ft | 183 kts | 55° |
| 2026-05-05 08:09 | 40.85360 | 9.43169 | 1671 ft | 170 kts | 55° |
| 2026-05-05 08:09 | 40.86006 | 9.44399 | 1398 ft | 157 kts | 54° |
| 2026-05-05 08:10 | 40.86611 | 9.45551 | 1159 ft | 148 kts | 55° |
| 2026-05-05 08:10 | 40.87190 | 9.46655 | 937 ft | 146 kts | 55° |
| 2026-05-05 08:10 | 40.87765 | 9.47751 | 717 ft | 144 kts | 54° |
| 2026-05-05 08:10 | 40.88329 | 9.48838 | 484 ft | 143 kts | 56° |
| 2026-05-05 08:11 | 40.88887 | 9.49925 | 271 ft | 143 kts | 55° |
| 2026-05-05 08:11 | 40.89455 | 9.51001 | 71 ft | 141 kts | 56° |
| 2026-05-05 08:11 | 40.89983 | 9.51978 | 39 ft | 120 kts | 55° |
| 2026-05-05 08:11 | 40.90470 | 9.52936 | 280 ft | 134 kts | 57° |
| 2026-05-05 08:12 | 40.90987 | 9.53947 | 1039 ft | 134 kts | 57° |
| 2026-05-05 08:12 | 40.91528 | 9.55044 | 1518 ft | 150 kts | 58° |
| 2026-05-05 08:12 | 40.92149 | 9.56358 | 1690 ft | 189 kts | 59° |
| 2026-05-05 08:12 | 40.92885 | 9.57976 | 1963 ft | 220 kts | 59° |
| 2026-05-05 08:13 | 40.93706 | 9.59833 | 2378 ft | 246 kts | 60° |
| 2026-05-05 08:13 | 40.94568 | 9.61852 | 2943 ft | 262 kts | 63° |
| 2026-05-05 08:13 | 40.94996 | 9.64095 | 4112 ft | 251 kts | 95° |
| 2026-05-05 08:13 | 40.94466 | 9.66222 | 4628 ft | 242 kts | 128° |
| 2026-05-05 08:14 | 40.93510 | 9.68029 | 4875 ft | 237 kts | 128° |
| 2026-05-05 08:14 | 40.92541 | 9.69773 | 4984 ft | 233 kts | 141° |
| 2026-05-05 08:14 | 40.91199 | 9.70877 | 5007 ft | 224 kts | 167° |
| 2026-05-05 08:14 | 40.89694 | 9.71079 | 5010 ft | 216 kts | 192° |
| 2026-05-05 08:15 | 40.88301 | 9.70428 | 5007 ft | 212 kts | 215° |
| 2026-05-05 08:15 | 40.87242 | 9.69092 | 4936 ft | 210 kts | 237° |
| 2026-05-05 08:15 | 40.86651 | 9.67352 | 4602 ft | 209 kts | 250° |
| 2026-05-05 08:15 | 40.86162 | 9.65532 | 4281 ft | 209 kts | 249° |
| 2026-05-05 08:16 | 40.85674 | 9.63726 | 4047 ft | 207 kts | 249° |
| 2026-05-05 08:16 | 40.85187 | 9.61929 | 4009 ft | 209 kts | 249° |
| 2026-05-05 08:16 | 40.84702 | 9.60139 | 4011 ft | 211 kts | 250° |
| 2026-05-05 08:16 | 40.84208 | 9.58316 | 3996 ft | 211 kts | 249° |
| 2026-05-05 08:17 | 40.83711 | 9.56489 | 4008 ft | 213 kts | 249° |
| 2026-05-05 08:17 | 40.83211 | 9.54655 | 4008 ft | 211 kts | 250° |
| 2026-05-05 08:17 | 40.82562 | 9.52913 | 4009 ft | 211 kts | 238° |
| 2026-05-05 08:17 | 40.81764 | 9.51297 | 3989 ft | 211 kts | 237° |
| 2026-05-05 08:18 | 40.81075 | 9.49588 | 3998 ft | 211 kts | 244° |
| 2026-05-05 08:18 | 40.80474 | 9.47814 | 4009 ft | 211 kts | 244° |
| 2026-05-05 08:18 | 40.79843 | 9.46071 | 4014 ft | 211 kts | 244° |
| 2026-05-05 08:18 | 40.79205 | 9.44339 | 4014 ft | 208 kts | 243° |
| 2026-05-05 08:19 | 40.78574 | 9.42611 | 4014 ft | 209 kts | 244° |
| 2026-05-05 08:19 | 40.77944 | 9.40886 | 4008 ft | 208 kts | 244° |
| 2026-05-05 08:19 | 40.77319 | 9.39165 | 3989 ft | 207 kts | 243° |
| 2026-05-05 08:19 | 40.76776 | 9.37409 | 3720 ft | 207 kts | 257° |
| 2026-05-05 08:20 | 40.76836 | 9.35543 | 3429 ft | 212 kts | 285° |
| 2026-05-05 08:20 | 40.77694 | 9.33927 | 3146 ft | 220 kts | 320° |
| 2026-05-05 08:20 | 40.79141 | 9.33367 | 3019 ft | 230 kts | 3° |
| 2026-05-05 08:20 | 40.80586 | 9.34182 | 3010 ft | 225 kts | 46° |
| 2026-05-05 08:21 | 40.81524 | 9.35792 | 3016 ft | 220 kts | 57° |
| 2026-05-05 08:21 | 40.82363 | 9.37442 | 2827 ft | 210 kts | 58° |
| 2026-05-05 08:21 | 40.83160 | 9.38979 | 2529 ft | 196 kts | 56° |
| 2026-05-05 08:21 | 40.83926 | 9.40440 | 2210 ft | 188 kts | 54° |
| 2026-05-05 08:22 | 40.84641 | 9.41801 | 1944 ft | 173 kts | 54° |
| 2026-05-05 08:22 | 40.85302 | 9.43057 | 1672 ft | 160 kts | 55° |
| 2026-05-05 08:22 | 40.85915 | 9.44224 | 1430 ft | 150 kts | 55° |
| 2026-05-05 08:22 | 40.86500 | 9.45339 | 1204 ft | 146 kts | 54° |
| 2026-05-05 08:23 | 40.87078 | 9.46440 | 981 ft | 146 kts | 56° |
| 2026-05-05 08:23 | 40.87648 | 9.47528 | 763 ft | 143 kts | 54° |
| 2026-05-05 08:23 | 40.88212 | 9.48605 | 543 ft | 143 kts | 56° |
| 2026-05-05 08:23 | 40.88779 | 9.49681 | 311 ft | 142 kts | 56° |
| 2026-05-05 08:24 | 40.89336 | 9.50757 | 103 ft | 141 kts | 57° |
| 2026-05-05 08:24 | 40.89875 | 9.51778 | 38 ft | 126 kts | 55° |
| 2026-05-05 08:24 | 40.90259 | 9.52517 | 32 ft | 57 kts | 55° |
| 2026-05-05 08:24 | 40.90396 | 9.52676 | 30 ft | 18 kts | 359° |
| 2026-05-05 08:25 | 40.90431 | 9.52666 | 30 ft | 0 kts | 334° |
| 2026-05-05 08:25 | 40.90447 | 9.52629 | 30 ft | 10 kts | 287° |
| 2026-05-05 08:25 | 40.90455 | 9.52504 | 31 ft | 15 kts | 265° |
| 2026-05-05 08:26 | 40.90452 | 9.52367 | 32 ft | 16 kts | 249° |
| 2026-05-05 08:26 | 40.90448 | 9.52252 | 32 ft | 11 kts | 311° |
| 2026-05-05 08:26 | 40.90433 | 9.52202 | 33 ft | 6 kts | 236° |
| 2026-05-05 08:26 | 40.90398 | 9.52132 | 33 ft | 12 kts | 237° |
| 2026-05-05 08:27 | 40.90344 | 9.52012 | 34 ft | 17 kts | 241° |
| 2026-05-05 08:27 | 40.90286 | 9.51870 | 35 ft | 17 kts | 241° |
| 2026-05-05 08:27 | 40.90237 | 9.51771 | 36 ft | 9 kts | 236° |
| 2026-05-05 08:27 | 40.90237 | 9.51735 | 36 ft | 3 kts | 313° |
| 2026-05-05 08:28 | 40.90248 | 9.51720 | 36 ft | 2 kts | 319° |
| 2026-05-05 08:28 | 40.90256 | 9.51712 | 36 ft | 1 kts | 322° |
| 2026-05-05 08:28 | 40.90261 | 9.51707 | 36 ft | 1 kts | 324° |
| 2026-05-05 08:28 | 40.90263 | 9.51706 | 36 ft | 0 kts | 324° |